sensor_id;sensor_type;location;lat;lon;timestamp;P1;durP1;ratioP1;P2;durP2;ratioP2
10403;SDS011;5248;47.374;8.486;2023-06-10T00:00:03;3.67;;;3.40;;
10403;SDS011;5248;47.374;8.486;2023-06-10T00:02:33;4.20;;;3.90;;
10403;SDS011;5248;47.374;8.486;2023-06-10T00:05:00;4.45;;;4.15;;
10403;SDS011;5248;47.374;8.486;2023-06-10T00:07:26;4.55;;;3.65;;
10403;SDS011;5248;47.374;8.486;2023-06-10T00:09:53;3.97;;;3.67;;
10403;SDS011;5248;47.374;8.486;2023-06-10T00:12:20;3.85;;;3.60;;
10403;SDS011;5248;47.374;8.486;2023-06-10T00:14:47;4.20;;;3.90;;
10403;SDS011;5248;47.374;8.486;2023-06-10T00:17:15;3.95;;;3.75;;
10403;SDS011;5248;47.374;8.486;2023-06-10T00:19:42;3.85;;;3.65;;
10403;SDS011;5248;47.374;8.486;2023-06-10T00:22:11;4.10;;;3.80;;
10403;SDS011;5248;47.374;8.486;2023-06-10T00:24:39;4.30;;;3.90;;
10403;SDS011;5248;47.374;8.486;2023-06-10T00:27:06;4.30;;;4.00;;
10403;SDS011;5248;47.374;8.486;2023-06-10T00:29:33;3.90;;;3.60;;
10403;SDS011;5248;47.374;8.486;2023-06-10T00:32:00;4.20;;;3.90;;
10403;SDS011;5248;47.374;8.486;2023-06-10T00:34:26;4.00;;;3.70;;
10403;SDS011;5248;47.374;8.486;2023-06-10T00:36:54;4.18;;;3.88;;
10403;SDS011;5248;47.374;8.486;2023-06-10T00:39:20;3.90;;;3.70;;
10403;SDS011;5248;47.374;8.486;2023-06-10T00:41:47;4.25;;;3.83;;
10403;SDS011;5248;47.374;8.486;2023-06-10T00:44:14;4.40;;;4.00;;
10403;SDS011;5248;47.374;8.486;2023-06-10T00:46:41;4.30;;;3.90;;
10403;SDS011;5248;47.374;8.486;2023-06-10T00:49:07;3.85;;;3.58;;
10403;SDS011;5248;47.374;8.486;2023-06-10T00:51:34;4.20;;;3.90;;
10403;SDS011;5248;47.374;8.486;2023-06-10T00:54:02;4.05;;;3.75;;
10403;SDS011;5248;47.374;8.486;2023-06-10T00:56:29;4.13;;;3.70;;
10403;SDS011;5248;47.374;8.486;2023-06-10T00:58:56;4.30;;;3.78;;
10403;SDS011;5248;47.374;8.486;2023-06-10T01:01:23;4.28;;;3.97;;
10403;SDS011;5248;47.374;8.486;2023-06-10T01:03:50;4.32;;;4.03;;
10403;SDS011;5248;47.374;8.486;2023-06-10T01:06:18;4.03;;;3.72;;
10403;SDS011;5248;47.374;8.486;2023-06-10T01:08:53;4.28;;;3.92;;
10403;SDS011;5248;47.374;8.486;2023-06-10T01:11:26;4.30;;;3.90;;
10403;SDS011;5248;47.374;8.486;2023-06-10T01:13:57;4.22;;;3.92;;
10403;SDS011;5248;47.374;8.486;2023-06-10T01:16:24;4.07;;;3.85;;
10403;SDS011;5248;47.374;8.486;2023-06-10T01:18:52;4.15;;;3.85;;
10403;SDS011;5248;47.374;8.486;2023-06-10T01:21:21;3.90;;;3.60;;
10403;SDS011;5248;47.374;8.486;2023-06-10T01:23:49;4.03;;;3.63;;
10403;SDS011;5248;47.374;8.486;2023-06-10T01:26:16;4.57;;;4.28;;
10403;SDS011;5248;47.374;8.486;2023-06-10T01:28:45;4.20;;;3.90;;
10403;SDS011;5248;47.374;8.486;2023-06-10T01:31:16;4.43;;;4.00;;
10403;SDS011;5248;47.374;8.486;2023-06-10T01:33:47;4.20;;;3.90;;
10403;SDS011;5248;47.374;8.486;2023-06-10T01:36:15;4.25;;;3.85;;
10403;SDS011;5248;47.374;8.486;2023-06-10T01:38:44;4.32;;;3.92;;
10403;SDS011;5248;47.374;8.486;2023-06-10T01:41:11;4.43;;;4.13;;
10403;SDS011;5248;47.374;8.486;2023-06-10T01:43:38;4.18;;;3.88;;
10403;SDS011;5248;47.374;8.486;2023-06-10T01:46:05;4.88;;;4.40;;
10403;SDS011;5248;47.374;8.486;2023-06-10T01:48:32;3.97;;;3.67;;
10403;SDS011;5248;47.374;8.486;2023-06-10T01:50:58;4.70;;;4.38;;
10403;SDS011;5248;47.374;8.486;2023-06-10T01:53:25;4.65;;;4.35;;
10403;SDS011;5248;47.374;8.486;2023-06-10T01:55:52;4.65;;;4.35;;
10403;SDS011;5248;47.374;8.486;2023-06-10T01:58:19;4.10;;;3.80;;
10403;SDS011;5248;47.374;8.486;2023-06-10T02:00:46;4.22;;;3.90;;
10403;SDS011;5248;47.374;8.486;2023-06-10T02:03:12;4.72;;;4.32;;
10403;SDS011;5248;47.374;8.486;2023-06-10T02:05:38;4.57;;;4.18;;
10403;SDS011;5248;47.374;8.486;2023-06-10T02:08:05;4.60;;;4.20;;
10403;SDS011;5248;47.374;8.486;2023-06-10T02:10:31;4.68;;;4.38;;
10403;SDS011;5248;47.374;8.486;2023-06-10T02:13:02;4.40;;;4.00;;
10403;SDS011;5248;47.374;8.486;2023-06-10T02:15:28;5.15;;;4.70;;
10403;SDS011;5248;47.374;8.486;2023-06-10T02:17:55;4.90;;;4.47;;
10403;SDS011;5248;47.374;8.486;2023-06-10T02:20:21;4.85;;;4.10;;
10403;SDS011;5248;47.374;8.486;2023-06-10T02:22:48;5.00;;;4.60;;
10403;SDS011;5248;47.374;8.486;2023-06-10T02:25:14;4.38;;;4.07;;
10403;SDS011;5248;47.374;8.486;2023-06-10T02:27:41;4.60;;;4.30;;
10403;SDS011;5248;47.374;8.486;2023-06-10T02:30:09;4.90;;;4.50;;
10403;SDS011;5248;47.374;8.486;2023-06-10T02:32:36;4.57;;;4.28;;
10403;SDS011;5248;47.374;8.486;2023-06-10T02:35:03;5.05;;;4.68;;
10403;SDS011;5248;47.374;8.486;2023-06-10T02:37:30;5.63;;;5.15;;
10403;SDS011;5248;47.374;8.486;2023-06-10T02:39:58;4.32;;;4.00;;
10403;SDS011;5248;47.374;8.486;2023-06-10T02:42:24;4.55;;;4.15;;
10403;SDS011;5248;47.374;8.486;2023-06-10T02:44:50;4.57;;;4.18;;
10403;SDS011;5248;47.374;8.486;2023-06-10T02:47:18;5.43;;;4.70;;
10403;SDS011;5248;47.374;8.486;2023-06-10T02:49:44;5.10;;;4.65;;
10403;SDS011;5248;47.374;8.486;2023-06-10T02:52:11;4.47;;;4.18;;
10403;SDS011;5248;47.374;8.486;2023-06-10T02:54:38;5.28;;;4.85;;
10403;SDS011;5248;47.374;8.486;2023-06-10T02:57:04;4.50;;;4.20;;
10403;SDS011;5248;47.374;8.486;2023-06-10T02:59:32;5.75;;;4.43;;
10403;SDS011;5248;47.374;8.486;2023-06-10T03:01:59;5.25;;;4.82;;
10403;SDS011;5248;47.374;8.486;2023-06-10T03:04:27;4.95;;;4.55;;
10403;SDS011;5248;47.374;8.486;2023-06-10T03:06:55;5.00;;;4.60;;
10403;SDS011;5248;47.374;8.486;2023-06-10T03:09:22;4.72;;;4.38;;
10403;SDS011;5248;47.374;8.486;2023-06-10T03:11:48;4.80;;;4.50;;
10403;SDS011;5248;47.374;8.486;2023-06-10T03:14:15;5.07;;;4.68;;
10403;SDS011;5248;47.374;8.486;2023-06-10T03:16:41;4.28;;;3.88;;
10403;SDS011;5248;47.374;8.486;2023-06-10T03:19:09;5.00;;;4.70;;
10403;SDS011;5248;47.374;8.486;2023-06-10T03:21:36;4.60;;;4.30;;
10403;SDS011;5248;47.374;8.486;2023-06-10T03:24:03;4.68;;;4.28;;
10403;SDS011;5248;47.374;8.486;2023-06-10T03:26:30;5.25;;;4.68;;
10403;SDS011;5248;47.374;8.486;2023-06-10T03:28:57;5.30;;;4.90;;
10403;SDS011;5248;47.374;8.486;2023-06-10T03:31:23;5.38;;;4.25;;
10403;SDS011;5248;47.374;8.486;2023-06-10T03:33:50;5.18;;;4.78;;
10403;SDS011;5248;47.374;8.486;2023-06-10T03:36:17;6.00;;;4.72;;
10403;SDS011;5248;47.374;8.486;2023-06-10T03:38:45;6.78;;;4.80;;
10403;SDS011;5248;47.374;8.486;2023-06-10T03:41:11;5.20;;;4.80;;
10403;SDS011;5248;47.374;8.486;2023-06-10T03:43:38;5.45;;;4.95;;
10403;SDS011;5248;47.374;8.486;2023-06-10T03:46:05;4.85;;;4.47;;
10403;SDS011;5248;47.374;8.486;2023-06-10T03:48:32;5.63;;;5.13;;
10403;SDS011;5248;47.374;8.486;2023-06-10T03:50:58;5.68;;;5.10;;
10403;SDS011;5248;47.374;8.486;2023-06-10T03:53:24;5.53;;;5.13;;
10403;SDS011;5248;47.374;8.486;2023-06-10T03:55:52;5.10;;;4.70;;
10403;SDS011;5248;47.374;8.486;2023-06-10T03:58:19;5.25;;;4.85;;
10403;SDS011;5248;47.374;8.486;2023-06-10T04:00:45;5.93;;;5.32;;
10403;SDS011;5248;47.374;8.486;2023-06-10T04:03:12;4.95;;;4.65;;
10403;SDS011;5248;47.374;8.486;2023-06-10T04:05:40;4.93;;;4.63;;
10403;SDS011;5248;47.374;8.486;2023-06-10T04:08:07;5.32;;;4.90;;
10403;SDS011;5248;47.374;8.486;2023-06-10T04:10:34;5.30;;;4.90;;
10403;SDS011;5248;47.374;8.486;2023-06-10T04:13:01;5.15;;;4.75;;
10403;SDS011;5248;47.374;8.486;2023-06-10T04:15:28;5.45;;;4.95;;
10403;SDS011;5248;47.374;8.486;2023-06-10T04:17:57;5.65;;;4.85;;
10403;SDS011;5248;47.374;8.486;2023-06-10T04:20:24;5.35;;;4.90;;
10403;SDS011;5248;47.374;8.486;2023-06-10T04:22:50;5.82;;;5.43;;
10403;SDS011;5248;47.374;8.486;2023-06-10T04:25:16;5.60;;;5.20;;
10403;SDS011;5248;47.374;8.486;2023-06-10T04:27:43;5.75;;;5.25;;
10403;SDS011;5248;47.374;8.486;2023-06-10T04:30:12;5.55;;;5.05;;
10403;SDS011;5248;47.374;8.486;2023-06-10T04:32:39;6.00;;;5.10;;
10403;SDS011;5248;47.374;8.486;2023-06-10T04:35:06;5.38;;;4.93;;
10403;SDS011;5248;47.374;8.486;2023-06-10T04:37:33;6.50;;;5.95;;
10403;SDS011;5248;47.374;8.486;2023-06-10T04:39:59;5.47;;;5.07;;
10403;SDS011;5248;47.374;8.486;2023-06-10T04:42:26;5.78;;;5.28;;
10403;SDS011;5248;47.374;8.486;2023-06-10T04:44:53;5.28;;;4.80;;
10403;SDS011;5248;47.374;8.486;2023-06-10T04:47:20;6.07;;;5.53;;
10403;SDS011;5248;47.374;8.486;2023-06-10T04:49:47;5.45;;;5.05;;
10403;SDS011;5248;47.374;8.486;2023-06-10T04:52:13;5.60;;;5.05;;
10403;SDS011;5248;47.374;8.486;2023-06-10T04:54:40;6.00;;;5.50;;
10403;SDS011;5248;47.374;8.486;2023-06-10T04:57:06;5.78;;;5.38;;
10403;SDS011;5248;47.374;8.486;2023-06-10T04:59:33;5.90;;;5.40;;
10403;SDS011;5248;47.374;8.486;2023-06-10T05:02:02;5.28;;;4.88;;
10403;SDS011;5248;47.374;8.486;2023-06-10T05:04:30;5.63;;;5.10;;
10403;SDS011;5248;47.374;8.486;2023-06-10T05:06:57;5.50;;;5.10;;
10403;SDS011;5248;47.374;8.486;2023-06-10T05:09:23;6.03;;;5.50;;
10403;SDS011;5248;47.374;8.486;2023-06-10T05:11:50;5.68;;;5.20;;
10403;SDS011;5248;47.374;8.486;2023-06-10T05:14:18;5.68;;;5.18;;
10403;SDS011;5248;47.374;8.486;2023-06-10T05:16:45;5.82;;;5.25;;
10403;SDS011;5248;47.374;8.486;2023-06-10T05:19:12;5.93;;;5.43;;
10403;SDS011;5248;47.374;8.486;2023-06-10T05:21:40;5.80;;;5.30;;
10403;SDS011;5248;47.374;8.486;2023-06-10T05:24:06;5.50;;;5.10;;
10403;SDS011;5248;47.374;8.486;2023-06-10T05:26:33;5.55;;;5.15;;
10403;SDS011;5248;47.374;8.486;2023-06-10T05:29:02;5.28;;;4.90;;
10403;SDS011;5248;47.374;8.486;2023-06-10T05:31:29;5.45;;;5.00;;
10403;SDS011;5248;47.374;8.486;2023-06-10T05:33:55;6.25;;;5.75;;
10403;SDS011;5248;47.374;8.486;2023-06-10T05:36:22;5.80;;;5.40;;
10403;SDS011;5248;47.374;8.486;2023-06-10T05:38:51;6.22;;;5.65;;
10403;SDS011;5248;47.374;8.486;2023-06-10T05:41:18;5.65;;;5.25;;
10403;SDS011;5248;47.374;8.486;2023-06-10T05:43:47;6.38;;;5.70;;
10403;SDS011;5248;47.374;8.486;2023-06-10T05:46:15;5.70;;;5.30;;
10403;SDS011;5248;47.374;8.486;2023-06-10T05:48:41;6.00;;;5.20;;
10403;SDS011;5248;47.374;8.486;2023-06-10T05:51:08;5.90;;;5.32;;
10403;SDS011;5248;47.374;8.486;2023-06-10T05:53:36;6.15;;;5.32;;
10403;SDS011;5248;47.374;8.486;2023-06-10T05:56:04;6.18;;;5.68;;
10403;SDS011;5248;47.374;8.486;2023-06-10T05:58:31;6.07;;;5.47;;
10403;SDS011;5248;47.374;8.486;2023-06-10T06:00:57;5.70;;;5.22;;
10403;SDS011;5248;47.374;8.486;2023-06-10T06:03:24;5.25;;;4.85;;
10403;SDS011;5248;47.374;8.486;2023-06-10T06:05:50;6.57;;;4.88;;
10403;SDS011;5248;47.374;8.486;2023-06-10T06:08:16;5.97;;;5.43;;
10403;SDS011;5248;47.374;8.486;2023-06-10T06:10:44;5.85;;;5.35;;
10403;SDS011;5248;47.374;8.486;2023-06-10T06:13:14;6.18;;;5.68;;
10403;SDS011;5248;47.374;8.486;2023-06-10T06:15:40;6.47;;;5.95;;
10403;SDS011;5248;47.374;8.486;2023-06-10T06:18:07;6.03;;;5.53;;
10403;SDS011;5248;47.374;8.486;2023-06-10T06:20:33;6.25;;;5.63;;
10403;SDS011;5248;47.374;8.486;2023-06-10T06:23:01;6.28;;;5.68;;
10403;SDS011;5248;47.374;8.486;2023-06-10T06:25:27;5.57;;;5.18;;
10403;SDS011;5248;47.374;8.486;2023-06-10T06:27:55;6.35;;;5.80;;
10403;SDS011;5248;47.374;8.486;2023-06-10T06:30:23;5.90;;;5.47;;
10403;SDS011;5248;47.374;8.486;2023-06-10T06:32:49;6.05;;;5.30;;
10403;SDS011;5248;47.374;8.486;2023-06-10T06:35:16;5.90;;;5.40;;
10403;SDS011;5248;47.374;8.486;2023-06-10T06:37:43;6.30;;;5.80;;
10403;SDS011;5248;47.374;8.486;2023-06-10T06:40:10;5.68;;;5.28;;
10403;SDS011;5248;47.374;8.486;2023-06-10T06:42:37;6.40;;;5.90;;
10403;SDS011;5248;47.374;8.486;2023-06-10T06:45:04;6.20;;;5.50;;
10403;SDS011;5248;47.374;8.486;2023-06-10T06:47:34;5.80;;;5.30;;
10403;SDS011;5248;47.374;8.486;2023-06-10T06:50:02;6.25;;;5.68;;
10403;SDS011;5248;47.374;8.486;2023-06-10T06:52:28;5.97;;;5.47;;
10403;SDS011;5248;47.374;8.486;2023-06-10T06:54:55;6.00;;;5.50;;
10403;SDS011;5248;47.374;8.486;2023-06-10T06:57:21;6.07;;;5.53;;
10403;SDS011;5248;47.374;8.486;2023-06-10T06:59:48;6.13;;;5.53;;
10403;SDS011;5248;47.374;8.486;2023-06-10T07:02:15;8.38;;;6.15;;
10403;SDS011;5248;47.374;8.486;2023-06-10T07:04:42;5.75;;;5.28;;
10403;SDS011;5248;47.374;8.486;2023-06-10T07:07:10;6.38;;;5.78;;
10403;SDS011;5248;47.374;8.486;2023-06-10T07:09:37;6.38;;;5.78;;
10403;SDS011;5248;47.374;8.486;2023-06-10T07:12:04;6.03;;;5.50;;
10403;SDS011;5248;47.374;8.486;2023-06-10T07:14:31;6.15;;;5.45;;
10403;SDS011;5248;47.374;8.486;2023-06-10T07:16:57;6.05;;;5.53;;
10403;SDS011;5248;47.374;8.486;2023-06-10T07:19:26;6.30;;;5.80;;
10403;SDS011;5248;47.374;8.486;2023-06-10T07:21:54;6.50;;;6.00;;
10403;SDS011;5248;47.374;8.486;2023-06-10T07:24:20;6.50;;;6.03;;
10403;SDS011;5248;47.374;8.486;2023-06-10T07:26:47;5.93;;;5.43;;
10403;SDS011;5248;47.374;8.486;2023-06-10T07:29:15;5.82;;;5.40;;
10403;SDS011;5248;47.374;8.486;2023-06-10T07:31:42;6.13;;;5.63;;
10403;SDS011;5248;47.374;8.486;2023-06-10T07:34:09;6.70;;;5.43;;
10403;SDS011;5248;47.374;8.486;2023-06-10T07:36:35;6.22;;;5.63;;
10403;SDS011;5248;47.374;8.486;2023-06-10T07:39:04;5.60;;;5.07;;
10403;SDS011;5248;47.374;8.486;2023-06-10T07:41:30;7.28;;;5.85;;
10403;SDS011;5248;47.374;8.486;2023-06-10T07:43:57;5.90;;;5.30;;
10403;SDS011;5248;47.374;8.486;2023-06-10T07:46:23;6.50;;;5.93;;
10403;SDS011;5248;47.374;8.486;2023-06-10T07:48:52;6.10;;;5.50;;
10403;SDS011;5248;47.374;8.486;2023-06-10T07:51:19;6.70;;;5.97;;
10403;SDS011;5248;47.374;8.486;2023-06-10T07:53:46;6.07;;;5.68;;
10403;SDS011;5248;47.374;8.486;2023-06-10T07:56:14;6.65;;;6.15;;
10403;SDS011;5248;47.374;8.486;2023-06-10T07:58:41;5.93;;;5.43;;
10403;SDS011;5248;47.374;8.486;2023-06-10T08:01:07;6.25;;;5.80;;
10403;SDS011;5248;47.374;8.486;2023-06-10T08:03:34;6.00;;;5.60;;
10403;SDS011;5248;47.374;8.486;2023-06-10T08:06:01;5.90;;;5.50;;
10403;SDS011;5248;47.374;8.486;2023-06-10T08:08:28;5.97;;;5.57;;
10403;SDS011;5248;47.374;8.486;2023-06-10T08:10:54;6.30;;;5.70;;
10403;SDS011;5248;47.374;8.486;2023-06-10T08:13:22;5.97;;;5.57;;
10403;SDS011;5248;47.374;8.486;2023-06-10T08:15:50;6.18;;;5.60;;
10403;SDS011;5248;47.374;8.486;2023-06-10T08:18:18;5.82;;;5.32;;
10403;SDS011;5248;47.374;8.486;2023-06-10T08:20:47;8.52;;;6.05;;
10403;SDS011;5248;47.374;8.486;2023-06-10T08:23:13;6.68;;;6.07;;
10403;SDS011;5248;47.374;8.486;2023-06-10T08:25:40;5.93;;;5.53;;
10403;SDS011;5248;47.374;8.486;2023-06-10T08:28:07;6.40;;;5.90;;
10403;SDS011;5248;47.374;8.486;2023-06-10T08:30:34;9.13;;;6.03;;
10403;SDS011;5248;47.374;8.486;2023-06-10T08:33:01;6.38;;;5.78;;
10403;SDS011;5248;47.374;8.486;2023-06-10T08:35:30;5.70;;;5.20;;
10403;SDS011;5248;47.374;8.486;2023-06-10T08:37:56;6.38;;;5.78;;
10403;SDS011;5248;47.374;8.486;2023-06-10T08:40:23;5.97;;;5.57;;
10403;SDS011;5248;47.374;8.486;2023-06-10T08:42:51;6.05;;;5.55;;
10403;SDS011;5248;47.374;8.486;2023-06-10T08:45:22;7.10;;;6.45;;
10403;SDS011;5248;47.374;8.486;2023-06-10T08:47:51;5.70;;;5.30;;
10403;SDS011;5248;47.374;8.486;2023-06-10T08:50:21;7.18;;;6.07;;
10403;SDS011;5248;47.374;8.486;2023-06-10T08:52:48;5.97;;;5.45;;
10403;SDS011;5248;47.374;8.486;2023-06-10T08:55:18;6.20;;;5.70;;
10403;SDS011;5248;47.374;8.486;2023-06-10T08:57:51;6.82;;;5.88;;
10403;SDS011;5248;47.374;8.486;2023-06-10T09:00:18;6.45;;;5.45;;
10403;SDS011;5248;47.374;8.486;2023-06-10T09:02:45;5.80;;;5.30;;
10403;SDS011;5248;47.374;8.486;2023-06-10T09:05:13;5.75;;;5.25;;
10403;SDS011;5248;47.374;8.486;2023-06-10T09:07:40;6.38;;;5.88;;
10403;SDS011;5248;47.374;8.486;2023-06-10T09:10:06;6.53;;;5.93;;
10403;SDS011;5248;47.374;8.486;2023-06-10T09:12:34;5.93;;;5.53;;
10403;SDS011;5248;47.374;8.486;2023-06-10T09:15:00;5.97;;;5.47;;
10403;SDS011;5248;47.374;8.486;2023-06-10T09:17:27;5.47;;;5.10;;
10403;SDS011;5248;47.374;8.486;2023-06-10T09:19:54;6.10;;;5.60;;
10403;SDS011;5248;47.374;8.486;2023-06-10T09:22:23;6.57;;;6.05;;
10403;SDS011;5248;47.374;8.486;2023-06-10T09:24:51;6.45;;;5.40;;
10403;SDS011;5248;47.374;8.486;2023-06-10T09:27:18;6.63;;;6.00;;
10403;SDS011;5248;47.374;8.486;2023-06-10T09:29:48;6.60;;;6.00;;
10403;SDS011;5248;47.374;8.486;2023-06-10T09:32:17;6.35;;;5.80;;
10403;SDS011;5248;47.374;8.486;2023-06-10T09:34:45;8.57;;;5.30;;
10403;SDS011;5248;47.374;8.486;2023-06-10T09:37:12;6.35;;;5.85;;
10403;SDS011;5248;47.374;8.486;2023-06-10T09:39:40;6.25;;;5.75;;
10403;SDS011;5248;47.374;8.486;2023-06-10T09:42:15;5.90;;;5.50;;
10403;SDS011;5248;47.374;8.486;2023-06-10T09:44:42;6.13;;;5.63;;
10403;SDS011;5248;47.374;8.486;2023-06-10T09:47:08;7.03;;;6.53;;
10403;SDS011;5248;47.374;8.486;2023-06-10T09:49:37;7.30;;;6.57;;
10403;SDS011;5248;47.374;8.486;2023-06-10T09:52:04;6.65;;;6.05;;
10403;SDS011;5248;47.374;8.486;2023-06-10T09:54:31;6.15;;;5.75;;
10403;SDS011;5248;47.374;8.486;2023-06-10T09:56:59;6.10;;;5.60;;
10403;SDS011;5248;47.374;8.486;2023-06-10T09:59:33;6.40;;;5.80;;
10403;SDS011;5248;47.374;8.486;2023-06-10T10:02:00;5.72;;;5.32;;
10403;SDS011;5248;47.374;8.486;2023-06-10T10:04:27;5.35;;;4.95;;
10403;SDS011;5248;47.374;8.486;2023-06-10T10:06:54;5.88;;;5.47;;
10403;SDS011;5248;47.374;8.486;2023-06-10T10:09:20;5.60;;;5.10;;
10403;SDS011;5248;47.374;8.486;2023-06-10T10:11:47;6.30;;;5.22;;
10403;SDS011;5248;47.374;8.486;2023-06-10T10:14:15;5.20;;;4.85;;
10403;SDS011;5248;47.374;8.486;2023-06-10T10:16:43;5.90;;;5.40;;
10403;SDS011;5248;47.374;8.486;2023-06-10T10:19:11;5.20;;;4.90;;
10403;SDS011;5248;47.374;8.486;2023-06-10T10:21:40;5.53;;;5.03;;
10403;SDS011;5248;47.374;8.486;2023-06-10T10:24:12;6.22;;;5.63;;
10403;SDS011;5248;47.374;8.486;2023-06-10T10:26:42;6.13;;;5.57;;
10403;SDS011;5248;47.374;8.486;2023-06-10T10:29:10;6.38;;;5.55;;
10403;SDS011;5248;47.374;8.486;2023-06-10T10:31:39;5.82;;;5.43;;
10403;SDS011;5248;47.374;8.486;2023-06-10T10:34:06;5.97;;;5.40;;
10403;SDS011;5248;47.374;8.486;2023-06-10T10:36:33;6.13;;;5.53;;
10403;SDS011;5248;47.374;8.486;2023-06-10T10:39:01;5.57;;;5.05;;
10403;SDS011;5248;47.374;8.486;2023-06-10T10:41:28;5.60;;;5.20;;
10403;SDS011;5248;47.374;8.486;2023-06-10T10:43:56;5.93;;;5.53;;
10403;SDS011;5248;47.374;8.486;2023-06-10T10:46:23;5.97;;;5.57;;
10403;SDS011;5248;47.374;8.486;2023-06-10T10:48:55;6.25;;;5.75;;
10403;SDS011;5248;47.374;8.486;2023-06-10T10:51:23;7.25;;;6.55;;
10403;SDS011;5248;47.374;8.486;2023-06-10T10:56:39;5.65;;;5.25;;
10403;SDS011;5248;47.374;8.486;2023-06-10T10:59:05;6.55;;;6.05;;
10403;SDS011;5248;47.374;8.486;2023-06-10T11:01:39;7.60;;;5.80;;
10403;SDS011;5248;47.374;8.486;2023-06-10T11:04:08;6.35;;;5.90;;
10403;SDS011;5248;47.374;8.486;2023-06-10T11:06:35;6.30;;;5.70;;
10403;SDS011;5248;47.374;8.486;2023-06-10T11:09:02;6.50;;;5.90;;
10403;SDS011;5248;47.374;8.486;2023-06-10T11:11:51;5.97;;;5.57;;
10403;SDS011;5248;47.374;8.486;2023-06-10T11:14:25;5.82;;;5.43;;
10403;SDS011;5248;47.374;8.486;2023-06-10T11:16:53;6.13;;;5.72;;
10403;SDS011;5248;47.374;8.486;2023-06-10T11:19:33;6.22;;;5.72;;
10403;SDS011;5248;47.374;8.486;2023-06-10T11:22:01;7.30;;;6.25;;
10403;SDS011;5248;47.374;8.486;2023-06-10T11:24:28;5.95;;;5.55;;
10403;SDS011;5248;47.374;8.486;2023-06-10T11:26:55;5.60;;;5.10;;
10403;SDS011;5248;47.374;8.486;2023-06-10T11:29:47;7.57;;;5.25;;
10403;SDS011;5248;47.374;8.486;2023-06-10T11:32:21;6.82;;;5.20;;
10403;SDS011;5248;47.374;8.486;2023-06-10T11:34:52;5.70;;;5.20;;
10403;SDS011;5248;47.374;8.486;2023-06-10T11:37:20;5.40;;;5.00;;
10403;SDS011;5248;47.374;8.486;2023-06-10T11:39:47;5.95;;;5.50;;
10403;SDS011;5248;47.374;8.486;2023-06-10T11:42:13;5.70;;;5.30;;
10403;SDS011;5248;47.374;8.486;2023-06-10T11:44:47;6.25;;;5.75;;
10403;SDS011;5248;47.374;8.486;2023-06-10T11:47:14;5.75;;;5.35;;
10403;SDS011;5248;47.374;8.486;2023-06-10T11:49:40;6.20;;;5.53;;
10403;SDS011;5248;47.374;8.486;2023-06-10T11:52:08;5.93;;;5.43;;
10403;SDS011;5248;47.374;8.486;2023-06-10T11:54:35;5.80;;;5.20;;
10403;SDS011;5248;47.374;8.486;2023-06-10T11:57:02;5.68;;;5.28;;
10403;SDS011;5248;47.374;8.486;2023-06-10T11:59:29;5.88;;;5.47;;
10403;SDS011;5248;47.374;8.486;2023-06-10T12:01:56;5.85;;;5.28;;
10403;SDS011;5248;47.374;8.486;2023-06-10T12:04:23;5.32;;;4.85;;
10403;SDS011;5248;47.374;8.486;2023-06-10T12:06:51;5.28;;;4.88;;
10403;SDS011;5248;47.374;8.486;2023-06-10T12:09:21;6.75;;;5.18;;
10403;SDS011;5248;47.374;8.486;2023-06-10T12:11:52;5.68;;;4.95;;
10403;SDS011;5248;47.374;8.486;2023-06-10T12:17:21;5.90;;;5.47;;
10403;SDS011;5248;47.374;8.486;2023-06-10T12:19:48;5.85;;;5.35;;
10403;SDS011;5248;47.374;8.486;2023-06-10T12:22:15;5.82;;;5.43;;
10403;SDS011;5248;47.374;8.486;2023-06-10T12:24:45;5.60;;;5.20;;
10403;SDS011;5248;47.374;8.486;2023-06-10T12:27:13;5.63;;;5.32;;
10403;SDS011;5248;47.374;8.486;2023-06-10T12:29:39;5.15;;;4.75;;
10403;SDS011;5248;47.374;8.486;2023-06-10T12:32:18;5.50;;;5.00;;
10403;SDS011;5248;47.374;8.486;2023-06-10T12:34:49;4.97;;;4.68;;
10403;SDS011;5248;47.374;8.486;2023-06-10T12:37:16;5.07;;;4.63;;
10403;SDS011;5248;47.374;8.486;2023-06-10T12:39:43;4.78;;;4.47;;
10403;SDS011;5248;47.374;8.486;2023-06-10T12:42:21;5.07;;;4.75;;
10403;SDS011;5248;47.374;8.486;2023-06-10T12:44:52;5.30;;;4.90;;
10403;SDS011;5248;47.374;8.486;2023-06-10T12:47:20;5.65;;;5.15;;
10403;SDS011;5248;47.374;8.486;2023-06-10T12:49:46;5.65;;;5.15;;
10403;SDS011;5248;47.374;8.486;2023-06-10T12:52:15;5.15;;;4.72;;
10403;SDS011;5248;47.374;8.486;2023-06-10T12:54:41;5.13;;;4.63;;
10403;SDS011;5248;47.374;8.486;2023-06-10T12:57:09;5.05;;;4.65;;
10403;SDS011;5248;47.374;8.486;2023-06-10T12:59:36;5.30;;;4.90;;
10403;SDS011;5248;47.374;8.486;2023-06-10T13:02:03;4.88;;;4.57;;
10403;SDS011;5248;47.374;8.486;2023-06-10T13:04:29;4.75;;;4.45;;
10403;SDS011;5248;47.374;8.486;2023-06-10T13:06:56;5.15;;;4.75;;
10403;SDS011;5248;47.374;8.486;2023-06-10T13:09:24;4.40;;;4.03;;
10403;SDS011;5248;47.374;8.486;2023-06-10T13:11:50;4.28;;;3.95;;
10403;SDS011;5248;47.374;8.486;2023-06-10T13:14:19;4.22;;;3.92;;
10403;SDS011;5248;47.374;8.486;2023-06-10T13:16:46;4.78;;;4.30;;
10403;SDS011;5248;47.374;8.486;2023-06-10T13:19:13;4.68;;;4.38;;
10403;SDS011;5248;47.374;8.486;2023-06-10T13:21:39;5.00;;;4.60;;
10403;SDS011;5248;47.374;8.486;2023-06-10T13:24:06;4.75;;;4.45;;
10403;SDS011;5248;47.374;8.486;2023-06-10T13:26:32;5.35;;;4.97;;
10403;SDS011;5248;47.374;8.486;2023-06-10T13:28:59;4.88;;;4.57;;
10403;SDS011;5248;47.374;8.486;2023-06-10T13:31:26;5.00;;;4.70;;
10403;SDS011;5248;47.374;8.486;2023-06-10T13:33:53;4.80;;;4.40;;
10403;SDS011;5248;47.374;8.486;2023-06-10T13:36:19;4.75;;;4.45;;
10403;SDS011;5248;47.374;8.486;2023-06-10T13:38:46;5.78;;;4.45;;
10403;SDS011;5248;47.374;8.486;2023-06-10T13:41:13;4.80;;;4.50;;
10403;SDS011;5248;47.374;8.486;2023-06-10T13:43:40;5.85;;;4.10;;
10403;SDS011;5248;47.374;8.486;2023-06-10T13:46:06;5.45;;;5.00;;
10403;SDS011;5248;47.374;8.486;2023-06-10T13:48:34;4.78;;;4.45;;
10403;SDS011;5248;47.374;8.486;2023-06-10T13:51:00;5.00;;;4.70;;
10403;SDS011;5248;47.374;8.486;2023-06-10T13:53:27;4.60;;;4.30;;
10403;SDS011;5248;47.374;8.486;2023-06-10T13:55:53;4.78;;;4.38;;
10403;SDS011;5248;47.374;8.486;2023-06-10T13:58:20;4.70;;;4.40;;
10403;SDS011;5248;47.374;8.486;2023-06-10T14:00:46;5.00;;;4.68;;
10403;SDS011;5248;47.374;8.486;2023-06-10T14:03:13;4.60;;;4.30;;
10403;SDS011;5248;47.374;8.486;2023-06-10T14:05:41;4.50;;;4.20;;
10403;SDS011;5248;47.374;8.486;2023-06-10T14:08:07;4.15;;;3.95;;
10403;SDS011;5248;47.374;8.486;2023-06-10T14:10:34;4.82;;;4.47;;
10403;SDS011;5248;47.374;8.486;2023-06-10T14:13:00;5.30;;;4.90;;
10403;SDS011;5248;47.374;8.486;2023-06-10T14:15:27;5.18;;;4.68;;
10403;SDS011;5248;47.374;8.486;2023-06-10T14:17:53;4.75;;;4.35;;
10403;SDS011;5248;47.374;8.486;2023-06-10T14:20:20;4.93;;;4.53;;
10403;SDS011;5248;47.374;8.486;2023-06-10T14:22:47;5.22;;;4.40;;
10403;SDS011;5248;47.374;8.486;2023-06-10T14:25:14;5.65;;;5.15;;
10403;SDS011;5248;47.374;8.486;2023-06-10T14:27:40;4.70;;;4.30;;
10403;SDS011;5248;47.374;8.486;2023-06-10T14:30:07;4.95;;;4.55;;
10403;SDS011;5248;47.374;8.486;2023-06-10T14:32:34;5.35;;;4.85;;
10403;SDS011;5248;47.374;8.486;2023-06-10T14:35:00;6.10;;;4.95;;
10403;SDS011;5248;47.374;8.486;2023-06-10T14:37:26;5.40;;;4.90;;
10403;SDS011;5248;47.374;8.486;2023-06-10T14:39:54;5.60;;;4.93;;
10403;SDS011;5248;47.374;8.486;2023-06-10T14:42:21;5.30;;;4.90;;
10403;SDS011;5248;47.374;8.486;2023-06-10T14:44:47;4.63;;;4.22;;
10403;SDS011;5248;47.374;8.486;2023-06-10T14:47:14;4.80;;;4.50;;
10403;SDS011;5248;47.374;8.486;2023-06-10T14:49:40;5.32;;;4.80;;
10403;SDS011;5248;47.374;8.486;2023-06-10T14:52:08;4.68;;;4.38;;
10403;SDS011;5248;47.374;8.486;2023-06-10T14:54:35;4.43;;;4.03;;
10403;SDS011;5248;47.374;8.486;2023-06-10T14:57:03;5.22;;;4.82;;
10403;SDS011;5248;47.374;8.486;2023-06-10T14:59:31;5.75;;;4.97;;
10403;SDS011;5248;47.374;8.486;2023-06-10T15:01:57;4.50;;;4.20;;
10403;SDS011;5248;47.374;8.486;2023-06-10T15:04:25;5.20;;;4.80;;
10403;SDS011;5248;47.374;8.486;2023-06-10T15:06:52;5.93;;;5.43;;